sensor_id;sensor_type;location;lat;lon;timestamp;P1;durP1;ratioP1;P2;durP2;ratioP2
80253;SDS011;69563;37.974;23.708;2023-05-27T00:01:50;7.03;;;3.67;;
80253;SDS011;69563;37.974;23.708;2023-05-27T00:04:16;7.68;;;3.60;;
80253;SDS011;69563;37.974;23.708;2023-05-27T00:06:42;5.80;;;3.42;;
80253;SDS011;69563;37.974;23.708;2023-05-27T00:09:08;7.03;;;3.50;;
80253;SDS011;69563;37.974;23.708;2023-05-27T00:11:34;6.40;;;3.60;;
80253;SDS011;69563;37.974;23.708;2023-05-27T00:14:00;9.20;;;3.63;;
80253;SDS011;69563;37.974;23.708;2023-05-27T00:16:26;8.77;;;3.97;;
80253;SDS011;69563;37.974;23.708;2023-05-27T00:18:52;7.18;;;3.30;;
80253;SDS011;69563;37.974;23.708;2023-05-27T00:21:18;9.07;;;3.35;;
80253;SDS011;69563;37.974;23.708;2023-05-27T00:23:45;6.88;;;3.33;;
80253;SDS011;69563;37.974;23.708;2023-05-27T00:26:11;7.03;;;3.08;;
80253;SDS011;69563;37.974;23.708;2023-05-27T00:28:37;6.90;;;3.25;;
80253;SDS011;69563;37.974;23.708;2023-05-27T00:31:03;7.18;;;3.45;;
80253;SDS011;69563;37.974;23.708;2023-05-27T00:33:29;6.35;;;3.22;;
80253;SDS011;69563;37.974;23.708;2023-05-27T00:35:54;12.35;;;3.40;;
80253;SDS011;69563;37.974;23.708;2023-05-27T00:38:20;9.05;;;3.40;;
80253;SDS011;69563;37.974;23.708;2023-05-27T00:40:46;6.47;;;3.10;;
80253;SDS011;69563;37.974;23.708;2023-05-27T00:43:14;5.82;;;3.15;;
80253;SDS011;69563;37.974;23.708;2023-05-27T00:45:40;6.65;;;3.42;;
80253;SDS011;69563;37.974;23.708;2023-05-27T00:48:06;5.68;;;3.38;;
80253;SDS011;69563;37.974;23.708;2023-05-27T00:50:32;6.93;;;3.35;;
80253;SDS011;69563;37.974;23.708;2023-05-27T00:52:57;8.68;;;3.60;;
80253;SDS011;69563;37.974;23.708;2023-05-27T00:55:24;4.95;;;3.00;;
80253;SDS011;69563;37.974;23.708;2023-05-27T00:57:50;6.50;;;3.30;;
80253;SDS011;69563;37.974;23.708;2023-05-27T01:00:18;7.53;;;2.90;;
80253;SDS011;69563;37.974;23.708;2023-05-27T01:02:44;5.10;;;2.80;;
80253;SDS011;69563;37.974;23.708;2023-05-27T01:05:11;7.15;;;3.25;;
80253;SDS011;69563;37.974;23.708;2023-05-27T01:07:59;6.80;;;3.00;;
80253;SDS011;69563;37.974;23.708;2023-05-27T01:10:42;7.47;;;3.10;;
80253;SDS011;69563;37.974;23.708;2023-05-27T01:13:23;6.10;;;3.20;;
80253;SDS011;69563;37.974;23.708;2023-05-27T01:16:01;7.10;;;3.30;;
80253;SDS011;69563;37.974;23.708;2023-05-27T01:18:30;8.23;;;3.30;;
80253;SDS011;69563;37.974;23.708;2023-05-27T01:21:07;7.03;;;3.38;;
80253;SDS011;69563;37.974;23.708;2023-05-27T01:23:37;6.53;;;3.13;;
80253;SDS011;69563;37.974;23.708;2023-05-27T01:26:06;6.30;;;3.50;;
80253;SDS011;69563;37.974;23.708;2023-05-27T01:28:32;11.82;;;4.28;;
80253;SDS011;69563;37.974;23.708;2023-05-27T01:31:02;7.15;;;3.60;;
80253;SDS011;69563;37.974;23.708;2023-05-27T01:33:58;6.47;;;3.53;;
80253;SDS011;69563;37.974;23.708;2023-05-27T01:36:29;7.10;;;3.50;;
80253;SDS011;69563;37.974;23.708;2023-05-27T01:39:00;7.05;;;3.45;;
80253;SDS011;69563;37.974;23.708;2023-05-27T01:41:28;7.13;;;3.75;;
80253;SDS011;69563;37.974;23.708;2023-05-27T01:43:55;11.05;;;3.90;;
80253;SDS011;69563;37.974;23.708;2023-05-27T01:46:21;8.82;;;3.80;;
80253;SDS011;69563;37.974;23.708;2023-05-27T01:48:47;10.70;;;3.50;;
80253;SDS011;69563;37.974;23.708;2023-05-27T01:51:13;8.02;;;3.55;;
80253;SDS011;69563;37.974;23.708;2023-05-27T01:53:39;7.10;;;3.60;;
80253;SDS011;69563;37.974;23.708;2023-05-27T01:56:05;7.40;;;3.85;;
80253;SDS011;69563;37.974;23.708;2023-05-27T01:58:30;7.82;;;3.67;;
80253;SDS011;69563;37.974;23.708;2023-05-27T02:00:56;6.40;;;3.50;;
80253;SDS011;69563;37.974;23.708;2023-05-27T02:03:22;7.15;;;3.53;;
80253;SDS011;69563;37.974;23.708;2023-05-27T02:05:47;8.88;;;3.92;;
80253;SDS011;69563;37.974;23.708;2023-05-27T02:08:13;14.75;;;4.57;;
80253;SDS011;69563;37.974;23.708;2023-05-27T02:10:39;9.90;;;3.72;;
80253;SDS011;69563;37.974;23.708;2023-05-27T02:13:05;10.10;;;4.00;;
80253;SDS011;69563;37.974;23.708;2023-05-27T02:15:31;7.72;;;3.45;;
80253;SDS011;69563;37.974;23.708;2023-05-27T02:17:57;8.30;;;3.70;;
80253;SDS011;69563;37.974;23.708;2023-05-27T02:20:23;10.32;;;4.00;;
80253;SDS011;69563;37.974;23.708;2023-05-27T02:22:49;8.57;;;3.67;;
80253;SDS011;69563;37.974;23.708;2023-05-27T02:25:15;5.43;;;3.40;;
80253;SDS011;69563;37.974;23.708;2023-05-27T02:27:41;8.57;;;3.65;;
80253;SDS011;69563;37.974;23.708;2023-05-27T02:30:09;11.18;;;4.10;;
80253;SDS011;69563;37.974;23.708;2023-05-27T02:32:35;7.45;;;3.53;;
80253;SDS011;69563;37.974;23.708;2023-05-27T02:35:01;10.30;;;3.90;;
80253;SDS011;69563;37.974;23.708;2023-05-27T02:37:27;7.55;;;3.53;;
80253;SDS011;69563;37.974;23.708;2023-05-27T02:39:53;9.40;;;3.60;;
80253;SDS011;69563;37.974;23.708;2023-05-27T02:42:20;6.88;;;3.58;;
80253;SDS011;69563;37.974;23.708;2023-05-27T02:44:45;8.40;;;3.83;;
80253;SDS011;69563;37.974;23.708;2023-05-27T02:47:11;7.45;;;3.63;;
80253;SDS011;69563;37.974;23.708;2023-05-27T02:49:37;8.60;;;3.70;;
80253;SDS011;69563;37.974;23.708;2023-05-27T02:52:03;8.50;;;4.10;;
80253;SDS011;69563;37.974;23.708;2023-05-27T02:54:29;7.68;;;3.80;;
80253;SDS011;69563;37.974;23.708;2023-05-27T02:56:54;9.43;;;3.55;;
80253;SDS011;69563;37.974;23.708;2023-05-27T02:59:20;7.25;;;3.28;;
80253;SDS011;69563;37.974;23.708;2023-05-27T03:01:46;6.22;;;3.10;;
80253;SDS011;69563;37.974;23.708;2023-05-27T03:04:12;6.95;;;3.38;;
80253;SDS011;69563;37.974;23.708;2023-05-27T03:06:37;7.20;;;3.60;;
80253;SDS011;69563;37.974;23.708;2023-05-27T03:09:03;7.38;;;3.30;;
80253;SDS011;69563;37.974;23.708;2023-05-27T03:11:29;5.43;;;3.15;;
80253;SDS011;69563;37.974;23.708;2023-05-27T03:13:55;5.43;;;3.10;;
80253;SDS011;69563;37.974;23.708;2023-05-27T03:16:20;7.63;;;3.30;;
80253;SDS011;69563;37.974;23.708;2023-05-27T03:18:48;7.40;;;3.20;;
80253;SDS011;69563;37.974;23.708;2023-05-27T03:21:13;8.23;;;3.08;;
80253;SDS011;69563;37.974;23.708;2023-05-27T03:23:39;9.40;;;3.30;;
80253;SDS011;69563;37.974;23.708;2023-05-27T03:26:05;9.07;;;3.17;;
80253;SDS011;69563;37.974;23.708;2023-05-27T03:28:31;13.00;;;3.30;;
80253;SDS011;69563;37.974;23.708;2023-05-27T03:30:56;9.85;;;3.20;;
80253;SDS011;69563;37.974;23.708;2023-05-27T03:33:22;7.35;;;3.28;;
80253;SDS011;69563;37.974;23.708;2023-05-27T03:35:48;7.82;;;3.03;;
80253;SDS011;69563;37.974;23.708;2023-05-27T03:38:15;8.73;;;2.90;;
80253;SDS011;69563;37.974;23.708;2023-05-27T03:40:40;5.35;;;3.00;;
80253;SDS011;69563;37.974;23.708;2023-05-27T03:43:06;8.57;;;3.75;;
80253;SDS011;69563;37.974;23.708;2023-05-27T03:45:32;8.25;;;3.40;;
80253;SDS011;69563;37.974;23.708;2023-05-27T03:47:57;9.85;;;3.25;;
80253;SDS011;69563;37.974;23.708;2023-05-27T03:50:23;9.90;;;4.38;;
80253;SDS011;69563;37.974;23.708;2023-05-27T03:52:49;11.77;;;4.10;;
80253;SDS011;69563;37.974;23.708;2023-05-27T03:55:15;10.15;;;3.70;;
80253;SDS011;69563;37.974;23.708;2023-05-27T03:57:42;7.25;;;3.65;;
80253;SDS011;69563;37.974;23.708;2023-05-27T04:00:08;9.10;;;3.45;;
80253;SDS011;69563;37.974;23.708;2023-05-27T04:02:37;8.55;;;3.13;;
80253;SDS011;69563;37.974;23.708;2023-05-27T04:05:03;7.22;;;3.30;;
80253;SDS011;69563;37.974;23.708;2023-05-27T04:07:29;5.18;;;2.75;;
80253;SDS011;69563;37.974;23.708;2023-05-27T04:09:56;11.15;;;3.35;;
80253;SDS011;69563;37.974;23.708;2023-05-27T04:12:22;8.02;;;2.97;;
80253;SDS011;69563;37.974;23.708;2023-05-27T04:14:48;8.52;;;3.20;;
80253;SDS011;69563;37.974;23.708;2023-05-27T04:17:14;8.82;;;3.38;;
80253;SDS011;69563;37.974;23.708;2023-05-27T04:19:40;10.80;;;3.30;;
80253;SDS011;69563;37.974;23.708;2023-05-27T04:22:06;8.98;;;3.20;;
80253;SDS011;69563;37.974;23.708;2023-05-27T04:24:32;6.18;;;2.78;;
80253;SDS011;69563;37.974;23.708;2023-05-27T04:26:58;5.75;;;2.95;;
80253;SDS011;69563;37.974;23.708;2023-05-27T04:29:24;7.28;;;3.00;;
80253;SDS011;69563;37.974;23.708;2023-05-27T04:31:50;4.97;;;2.70;;
80253;SDS011;69563;37.974;23.708;2023-05-27T04:34:16;6.93;;;2.95;;
80253;SDS011;69563;37.974;23.708;2023-05-27T04:36:42;6.18;;;2.83;;
80253;SDS011;69563;37.974;23.708;2023-05-27T04:39:09;6.30;;;2.75;;
80253;SDS011;69563;37.974;23.708;2023-05-27T04:41:36;8.00;;;3.13;;
80253;SDS011;69563;37.974;23.708;2023-05-27T04:44:04;6.55;;;3.03;;
80253;SDS011;69563;37.974;23.708;2023-05-27T04:46:31;9.88;;;3.10;;
80253;SDS011;69563;37.974;23.708;2023-05-27T04:48:56;6.10;;;2.75;;
80253;SDS011;69563;37.974;23.708;2023-05-27T04:51:22;6.55;;;2.33;;
80253;SDS011;69563;37.974;23.708;2023-05-27T04:53:48;4.63;;;2.58;;
80253;SDS011;69563;37.974;23.708;2023-05-27T04:56:14;4.30;;;2.60;;
80253;SDS011;69563;37.974;23.708;2023-05-27T04:58:42;5.35;;;2.55;;
80253;SDS011;69563;37.974;23.708;2023-05-27T05:01:09;4.82;;;2.42;;
80253;SDS011;69563;37.974;23.708;2023-05-27T05:03:45;3.45;;;2.10;;
80253;SDS011;69563;37.974;23.708;2023-05-27T05:06:27;8.27;;;2.40;;
80253;SDS011;69563;37.974;23.708;2023-05-27T05:08:53;6.72;;;2.58;;
80253;SDS011;69563;37.974;23.708;2023-05-27T05:11:19;4.53;;;2.33;;
80253;SDS011;69563;37.974;23.708;2023-05-27T05:13:46;4.22;;;2.20;;
80253;SDS011;69563;37.974;23.708;2023-05-27T05:16:12;7.50;;;2.60;;
80253;SDS011;69563;37.974;23.708;2023-05-27T05:18:37;3.90;;;2.30;;
80253;SDS011;69563;37.974;23.708;2023-05-27T05:21:03;5.18;;;2.22;;
80253;SDS011;69563;37.974;23.708;2023-05-27T05:23:29;4.93;;;2.55;;
80253;SDS011;69563;37.974;23.708;2023-05-27T05:25:55;6.28;;;2.45;;
80253;SDS011;69563;37.974;23.708;2023-05-27T05:28:23;5.47;;;2.40;;
80253;SDS011;69563;37.974;23.708;2023-05-27T05:30:50;6.57;;;2.58;;
80253;SDS011;69563;37.974;23.708;2023-05-27T05:33:15;4.90;;;2.50;;
80253;SDS011;69563;37.974;23.708;2023-05-27T05:35:41;8.52;;;2.42;;
80253;SDS011;69563;37.974;23.708;2023-05-27T05:38:07;6.35;;;2.42;;
80253;SDS011;69563;37.974;23.708;2023-05-27T05:40:32;7.07;;;2.50;;
80253;SDS011;69563;37.974;23.708;2023-05-27T05:42:58;5.38;;;2.30;;
80253;SDS011;69563;37.974;23.708;2023-05-27T05:45:24;6.72;;;2.65;;
80253;SDS011;69563;37.974;23.708;2023-05-27T05:47:50;7.57;;;2.80;;
80253;SDS011;69563;37.974;23.708;2023-05-27T05:50:16;4.82;;;2.63;;
80253;SDS011;69563;37.974;23.708;2023-05-27T05:52:42;5.13;;;2.60;;
80253;SDS011;69563;37.974;23.708;2023-05-27T05:55:07;5.05;;;2.40;;
80253;SDS011;69563;37.974;23.708;2023-05-27T05:57:33;8.40;;;2.90;;
80253;SDS011;69563;37.974;23.708;2023-05-27T05:59:59;7.15;;;2.63;;
80253;SDS011;69563;37.974;23.708;2023-05-27T06:02:25;6.28;;;2.58;;
80253;SDS011;69563;37.974;23.708;2023-05-27T06:04:51;7.32;;;2.58;;
80253;SDS011;69563;37.974;23.708;2023-05-27T06:07:17;6.20;;;2.80;;
80253;SDS011;69563;37.974;23.708;2023-05-27T06:09:42;5.22;;;2.42;;
80253;SDS011;69563;37.974;23.708;2023-05-27T06:12:08;6.03;;;2.50;;
80253;SDS011;69563;37.974;23.708;2023-05-27T06:14:34;5.30;;;2.70;;
80253;SDS011;69563;37.974;23.708;2023-05-27T06:16:59;5.32;;;2.38;;
80253;SDS011;69563;37.974;23.708;2023-05-27T06:19:25;4.70;;;2.63;;
80253;SDS011;69563;37.974;23.708;2023-05-27T06:21:51;9.70;;;2.63;;
80253;SDS011;69563;37.974;23.708;2023-05-27T06:24:17;4.75;;;2.70;;
80253;SDS011;69563;37.974;23.708;2023-05-27T06:26:44;5.60;;;2.60;;
80253;SDS011;69563;37.974;23.708;2023-05-27T06:29:10;7.90;;;2.60;;
80253;SDS011;69563;37.974;23.708;2023-05-27T06:31:35;4.85;;;2.60;;
80253;SDS011;69563;37.974;23.708;2023-05-27T06:34:01;5.38;;;2.40;;
80253;SDS011;69563;37.974;23.708;2023-05-27T06:36:27;5.40;;;2.50;;
80253;SDS011;69563;37.974;23.708;2023-05-27T06:38:53;5.18;;;2.50;;
80253;SDS011;69563;37.974;23.708;2023-05-27T06:41:19;5.88;;;2.42;;
80253;SDS011;69563;37.974;23.708;2023-05-27T06:43:44;5.03;;;2.42;;
80253;SDS011;69563;37.974;23.708;2023-05-27T06:46:10;5.35;;;2.50;;
80253;SDS011;69563;37.974;23.708;2023-05-27T06:48:36;7.65;;;2.70;;
80253;SDS011;69563;37.974;23.708;2023-05-27T06:51:01;7.28;;;2.60;;
80253;SDS011;69563;37.974;23.708;2023-05-27T06:53:28;6.10;;;2.63;;
80253;SDS011;69563;37.974;23.708;2023-05-27T06:55:54;5.10;;;2.40;;
80253;SDS011;69563;37.974;23.708;2023-05-27T06:58:20;6.15;;;2.50;;
80253;SDS011;69563;37.974;23.708;2023-05-27T07:00:46;7.55;;;2.72;;
80253;SDS011;69563;37.974;23.708;2023-05-27T07:03:11;4.88;;;2.53;;
80253;SDS011;69563;37.974;23.708;2023-05-27T07:05:37;7.53;;;2.70;;
80253;SDS011;69563;37.974;23.708;2023-05-27T07:08:03;5.55;;;2.70;;
80253;SDS011;69563;37.974;23.708;2023-05-27T07:10:31;4.00;;;2.30;;
80253;SDS011;69563;37.974;23.708;2023-05-27T07:12:56;4.18;;;2.33;;
80253;SDS011;69563;37.974;23.708;2023-05-27T07:15:22;7.43;;;2.70;;
80253;SDS011;69563;37.974;23.708;2023-05-27T07:17:48;5.43;;;2.40;;
80253;SDS011;69563;37.974;23.708;2023-05-27T07:20:13;3.75;;;2.50;;
80253;SDS011;69563;37.974;23.708;2023-05-27T07:22:39;9.18;;;2.80;;
80253;SDS011;69563;37.974;23.708;2023-05-27T07:25:05;6.13;;;2.90;;
80253;SDS011;69563;37.974;23.708;2023-05-27T07:27:31;9.18;;;2.80;;
80253;SDS011;69563;37.974;23.708;2023-05-27T07:29:57;5.18;;;2.53;;
80253;SDS011;69563;37.974;23.708;2023-05-27T07:32:22;8.40;;;2.53;;
80253;SDS011;69563;37.974;23.708;2023-05-27T07:34:48;4.80;;;2.72;;
80253;SDS011;69563;37.974;23.708;2023-05-27T07:37:15;6.07;;;2.90;;
80253;SDS011;69563;37.974;23.708;2023-05-27T07:39:40;5.63;;;2.50;;
80253;SDS011;69563;37.974;23.708;2023-05-27T07:42:06;5.75;;;2.50;;
80253;SDS011;69563;37.974;23.708;2023-05-27T07:44:32;4.90;;;2.45;;
80253;SDS011;69563;37.974;23.708;2023-05-27T07:46:57;4.80;;;2.60;;
80253;SDS011;69563;37.974;23.708;2023-05-27T07:49:25;7.60;;;2.65;;
80253;SDS011;69563;37.974;23.708;2023-05-27T07:51:51;4.70;;;2.85;;
80253;SDS011;69563;37.974;23.708;2023-05-27T07:54:17;6.53;;;2.50;;
80253;SDS011;69563;37.974;23.708;2023-05-27T07:56:42;6.88;;;2.70;;
80253;SDS011;69563;37.974;23.708;2023-05-27T07:59:08;5.65;;;2.35;;
80253;SDS011;69563;37.974;23.708;2023-05-27T08:01:34;6.70;;;2.58;;
80253;SDS011;69563;37.974;23.708;2023-05-27T08:04:00;5.50;;;2.30;;
80253;SDS011;69563;37.974;23.708;2023-05-27T08:06:26;6.95;;;2.63;;
80253;SDS011;69563;37.974;23.708;2023-05-27T08:08:51;6.25;;;2.47;;
80253;SDS011;69563;37.974;23.708;2023-05-27T08:11:17;4.32;;;2.40;;
80253;SDS011;69563;37.974;23.708;2023-05-27T08:13:43;5.22;;;2.50;;
80253;SDS011;69563;37.974;23.708;2023-05-27T08:16:09;8.95;;;2.72;;
80253;SDS011;69563;37.974;23.708;2023-05-27T08:18:36;6.30;;;2.70;;
80253;SDS011;69563;37.974;23.708;2023-05-27T08:21:02;4.25;;;2.35;;
80253;SDS011;69563;37.974;23.708;2023-05-27T08:23:28;8.40;;;2.50;;
80253;SDS011;69563;37.974;23.708;2023-05-27T08:25:53;5.43;;;2.53;;
80253;SDS011;69563;37.974;23.708;2023-05-27T08:28:20;8.85;;;2.92;;
80253;SDS011;69563;37.974;23.708;2023-05-27T08:30:46;6.75;;;2.85;;
80253;SDS011;69563;37.974;23.708;2023-05-27T08:33:12;5.00;;;2.45;;
80253;SDS011;69563;37.974;23.708;2023-05-27T08:35:38;8.48;;;3.00;;
80253;SDS011;69563;37.974;23.708;2023-05-27T08:38:04;7.13;;;2.83;;
80253;SDS011;69563;37.974;23.708;2023-05-27T08:40:29;6.35;;;3.08;;
80253;SDS011;69563;37.974;23.708;2023-05-27T08:42:55;4.55;;;2.80;;
80253;SDS011;69563;37.974;23.708;2023-05-27T08:45:21;7.50;;;2.95;;
80253;SDS011;69563;37.974;23.708;2023-05-27T08:47:47;7.13;;;3.00;;
80253;SDS011;69563;37.974;23.708;2023-05-27T08:50:14;8.50;;;2.58;;
80253;SDS011;69563;37.974;23.708;2023-05-27T08:53:01;5.60;;;2.80;;
80253;SDS011;69563;37.974;23.708;2023-05-27T08:55:25;6.78;;;3.00;;
80253;SDS011;69563;37.974;23.708;2023-05-27T08:57:54;5.13;;;2.97;;
80253;SDS011;69563;37.974;23.708;2023-05-27T09:00:22;9.18;;;2.80;;
80253;SDS011;69563;37.974;23.708;2023-05-27T09:02:49;4.82;;;2.72;;
80253;SDS011;69563;37.974;23.708;2023-05-27T09:05:15;6.28;;;2.85;;
80253;SDS011;69563;37.974;23.708;2023-05-27T09:07:41;7.88;;;2.80;;
80253;SDS011;69563;37.974;23.708;2023-05-27T09:10:08;5.20;;;2.72;;
80253;SDS011;69563;37.974;23.708;2023-05-27T09:12:34;5.85;;;2.60;;
80253;SDS011;69563;37.974;23.708;2023-05-27T09:15:01;6.40;;;2.63;;
80253;SDS011;69563;37.974;23.708;2023-05-27T09:17:29;5.43;;;2.75;;
80253;SDS011;69563;37.974;23.708;2023-05-27T09:19:55;8.52;;;3.05;;
80253;SDS011;69563;37.974;23.708;2023-05-27T09:22:21;5.68;;;2.85;;
80253;SDS011;69563;37.974;23.708;2023-05-27T09:24:56;7.05;;;2.83;;
80253;SDS011;69563;37.974;23.708;2023-05-27T09:29:52;5.13;;;2.90;;
80253;SDS011;69563;37.974;23.708;2023-05-27T09:35:00;6.88;;;2.60;;
80253;SDS011;69563;37.974;23.708;2023-05-27T09:37:26;8.98;;;2.85;;
80253;SDS011;69563;37.974;23.708;2023-05-27T09:39:59;7.90;;;2.83;;
80253;SDS011;69563;37.974;23.708;2023-05-27T09:42:50;6.43;;;2.83;;
80253;SDS011;69563;37.974;23.708;2023-05-27T09:45:19;6.00;;;2.80;;
80253;SDS011;69563;37.974;23.708;2023-05-27T09:47:49;6.45;;;2.90;;
80253;SDS011;69563;37.974;23.708;2023-05-27T09:50:16;5.57;;;3.00;;
80253;SDS011;69563;37.974;23.708;2023-05-27T09:52:43;6.07;;;2.60;;
80253;SDS011;69563;37.974;23.708;2023-05-27T09:55:10;6.60;;;2.85;;
80253;SDS011;69563;37.974;23.708;2023-05-27T09:57:37;4.28;;;2.55;;
80253;SDS011;69563;37.974;23.708;2023-05-27T10:00:05;9.23;;;2.20;;
80253;SDS011;69563;37.974;23.708;2023-05-27T10:02:36;5.13;;;2.80;;
80253;SDS011;69563;37.974;23.708;2023-05-27T10:05:06;6.57;;;2.70;;
80253;SDS011;69563;37.974;23.708;2023-05-27T10:07:43;5.03;;;2.63;;
80253;SDS011;69563;37.974;23.708;2023-05-27T10:10:10;6.50;;;2.88;;
80253;SDS011;69563;37.974;23.708;2023-05-27T10:12:38;5.93;;;2.60;;
80253;SDS011;69563;37.974;23.708;2023-05-27T10:15:05;6.75;;;2.78;;
80253;SDS011;69563;37.974;23.708;2023-05-27T10:17:47;6.15;;;3.10;;
80253;SDS011;69563;37.974;23.708;2023-05-27T10:23:15;6.10;;;2.80;;
80253;SDS011;69563;37.974;23.708;2023-05-27T10:25:47;4.03;;;2.60;;
80253;SDS011;69563;37.974;23.708;2023-05-27T10:30:52;5.60;;;2.80;;
80253;SDS011;69563;37.974;23.708;2023-05-27T10:33:39;6.85;;;2.70;;
80253;SDS011;69563;37.974;23.708;2023-05-27T10:36:16;8.00;;;2.42;;
80253;SDS011;69563;37.974;23.708;2023-05-27T10:38:57;6.72;;;2.78;;
80253;SDS011;69563;37.974;23.708;2023-05-27T10:41:22;5.70;;;2.67;;
80253;SDS011;69563;37.974;23.708;2023-05-27T10:43:55;6.55;;;2.67;;
80253;SDS011;69563;37.974;23.708;2023-05-27T10:46:21;5.90;;;2.97;;
80253;SDS011;69563;37.974;23.708;2023-05-27T10:48:47;4.57;;;2.80;;
80253;SDS011;69563;37.974;23.708;2023-05-27T10:51:13;5.72;;;2.60;;
80253;SDS011;69563;37.974;23.708;2023-05-27T10:53:39;6.38;;;2.55;;
80253;SDS011;69563;37.974;23.708;2023-05-27T10:56:05;7.82;;;2.65;;
80253;SDS011;69563;37.974;23.708;2023-05-27T10:58:35;5.45;;;2.75;;
80253;SDS011;69563;37.974;23.708;2023-05-27T11:01:07;4.85;;;2.55;;
80253;SDS011;69563;37.974;23.708;2023-05-27T11:03:42;7.88;;;2.92;;
80253;SDS011;69563;37.974;23.708;2023-05-27T11:06:10;5.32;;;2.72;;
80253;SDS011;69563;37.974;23.708;2023-05-27T11:08:36;5.90;;;2.58;;
80253;SDS011;69563;37.974;23.708;2023-05-27T11:11:03;5.85;;;2.53;;
80253;SDS011;69563;37.974;23.708;2023-05-27T11:13:32;4.68;;;2.42;;
80253;SDS011;69563;37.974;23.708;2023-05-27T11:15:59;4.60;;;2.70;;
80253;SDS011;69563;37.974;23.708;2023-05-27T11:18:36;5.05;;;2.55;;
80253;SDS011;69563;37.974;23.708;2023-05-27T11:21:12;5.13;;;2.50;;
80253;SDS011;69563;37.974;23.708;2023-05-27T11:23:45;6.53;;;2.40;;
80253;SDS011;69563;37.974;23.708;2023-05-27T11:31:17;5.80;;;2.33;;
80253;SDS011;69563;37.974;23.708;2023-05-27T11:33:45;5.10;;;2.40;;
80253;SDS011;69563;37.974;23.708;2023-05-27T11:36:14;5.57;;;2.85;;
80253;SDS011;69563;37.974;23.708;2023-05-27T11:38:54;5.30;;;2.65;;
80253;SDS011;69563;37.974;23.708;2023-05-27T11:41:23;4.32;;;2.63;;
80253;SDS011;69563;37.974;23.708;2023-05-27T11:46:18;4.90;;;2.30;;
80253;SDS011;69563;37.974;23.708;2023-05-27T11:48:44;5.95;;;2.85;;
80253;SDS011;69563;37.974;23.708;2023-05-27T11:51:11;8.43;;;2.88;;
80253;SDS011;69563;37.974;23.708;2023-05-27T11:53:46;4.50;;;2.55;;
80253;SDS011;69563;37.974;23.708;2023-05-27T11:56:12;5.85;;;3.00;;
80253;SDS011;69563;37.974;23.708;2023-05-27T11:58:40;4.50;;;2.60;;
80253;SDS011;69563;37.974;23.708;2023-05-27T12:01:06;4.97;;;2.70;;
80253;SDS011;69563;37.974;23.708;2023-05-27T12:03:35;6.53;;;2.80;;
80253;SDS011;69563;37.974;23.708;2023-05-27T12:06:01;5.25;;;2.70;;
80253;SDS011;69563;37.974;23.708;2023-05-27T12:08:28;6.53;;;2.60;;
80253;SDS011;69563;37.974;23.708;2023-05-27T12:10:54;5.55;;;2.80;;
80253;SDS011;69563;37.974;23.708;2023-05-27T12:13:20;3.72;;;2.40;;
80253;SDS011;69563;37.974;23.708;2023-05-27T12:15:47;5.32;;;3.03;;
80253;SDS011;69563;37.974;23.708;2023-05-27T12:18:13;5.03;;;2.78;;
80253;SDS011;69563;37.974;23.708;2023-05-27T12:20:39;5.15;;;2.80;;
80253;SDS011;69563;37.974;23.708;2023-05-27T12:23:04;4.90;;;2.60;;
80253;SDS011;69563;37.974;23.708;2023-05-27T12:25:30;5.32;;;2.65;;
80253;SDS011;69563;37.974;23.708;2023-05-27T12:27:56;5.47;;;2.70;;
80253;SDS011;69563;37.974;23.708;2023-05-27T12:30:22;6.90;;;2.80;;
80253;SDS011;69563;37.974;23.708;2023-05-27T12:32:48;4.57;;;2.40;;
80253;SDS011;69563;37.974;23.708;2023-05-27T12:35:14;4.75;;;2.40;;
80253;SDS011;69563;37.974;23.708;2023-05-27T12:37:40;5.35;;;2.50;;
80253;SDS011;69563;37.974;23.708;2023-05-27T12:40:06;4.55;;;2.25;;
80253;SDS011;69563;37.974;23.708;2023-05-27T12:42:34;4.60;;;2.60;;
80253;SDS011;69563;37.974;23.708;2023-05-27T12:45:00;5.97;;;2.53;;
80253;SDS011;69563;37.974;23.708;2023-05-27T12:47:26;4.95;;;2.60;;
80253;SDS011;69563;37.974;23.708;2023-05-27T12:49:54;5.40;;;2.38;;
80253;SDS011;69563;37.974;23.708;2023-05-27T12:52:20;6.35;;;2.55;;
80253;SDS011;69563;37.974;23.708;2023-05-27T12:54:45;4.30;;;2.45;;
80253;SDS011;69563;37.974;23.708;2023-05-27T12:57:12;5.97;;;2.58;;
80253;SDS011;69563;37.974;23.708;2023-05-27T12:59:37;3.95;;;2.67;;
80253;SDS011;69563;37.974;23.708;2023-05-27T13:02:03;4.85;;;2.35;;
80253;SDS011;69563;37.974;23.708;2023-05-27T13:04:32;6.28;;;2.45;;
80253;SDS011;69563;37.974;23.708;2023-05-27T13:06:58;6.45;;;2.42;;
80253;SDS011;69563;37.974;23.708;2023-05-27T13:09:23;5.50;;;2.30;;
80253;SDS011;69563;37.974;23.708;2023-05-27T13:11:49;4.78;;;2.40;;
80253;SDS011;69563;37.974;23.708;2023-05-27T13:14:15;5.15;;;2.60;;
80253;SDS011;69563;37.974;23.708;2023-05-27T13:16:41;5.55;;;2.40;;
80253;SDS011;69563;37.974;23.708;2023-05-27T13:19:06;5.78;;;2.40;;
80253;SDS011;69563;37.974;23.708;2023-05-27T13:21:32;4.20;;;2.20;;
80253;SDS011;69563;37.974;23.708;2023-05-27T13:23:58;5.88;;;2.50;;
80253;SDS011;69563;37.974;23.708;2023-05-27T13:26:23;4.80;;;2.40;;
80253;SDS011;69563;37.974;23.708;2023-05-27T13:28:50;5.43;;;2.53;;
80253;SDS011;69563;37.974;23.708;2023-05-27T13:31:16;4.90;;;2.58;;
80253;SDS011;69563;37.974;23.708;2023-05-27T13:33:42;3.58;;;2.20;;
80253;SDS011;69563;37.974;23.708;2023-05-27T13:36:08;3.92;;;2.22;;
80253;SDS011;69563;37.974;23.708;2023-05-27T13:38:33;6.47;;;2.65;;
80253;SDS011;69563;37.974;23.708;2023-05-27T13:40:59;5.43;;;2.70;;
80253;SDS011;69563;37.974;23.708;2023-05-27T13:43:25;4.95;;;2.47;;
80253;SDS011;69563;37.974;23.708;2023-05-27T13:45:51;6.35;;;2.60;;
80253;SDS011;69563;37.974;23.708;2023-05-27T13:48:17;5.82;;;2.30;;
80253;SDS011;69563;37.974;23.708;2023-05-27T13:50:42;5.13;;;2.50;;
80253;SDS011;69563;37.974;23.708;2023-05-27T13:53:08;4.70;;;2.58;;
80253;SDS011;69563;37.974;23.708;2023-05-27T13:55:34;4.97;;;2.75;;
80253;SDS011;69563;37.974;23.708;2023-05-27T13:57:59;4.22;;;2.42;;
80253;SDS011;69563;37.974;23.708;2023-05-27T14:00:25;5.82;;;2.50;;
80253;SDS011;69563;37.974;23.708;2023-05-27T14:02:51;5.80;;;2.60;;
80253;SDS011;69563;37.974;23.708;2023-05-27T14:05:19;6.85;;;2.90;;
80253;SDS011;69563;37.974;23.708;2023-05-27T14:07:45;4.47;;;2.50;;
80253;SDS011;69563;37.974;23.708;2023-05-27T14:10:11;5.13;;;2.75;;
80253;SDS011;69563;37.974;23.708;2023-05-27T14:12:37;6.13;;;3.03;;
80253;SDS011;69563;37.974;23.708;2023-05-27T14:15:04;6.82;;;2.75;;
80253;SDS011;69563;37.974;23.708;2023-05-27T14:17:30;6.07;;;2.80;;
80253;SDS011;69563;37.974;23.708;2023-05-27T14:19:56;8.23;;;2.90;;
80253;SDS011;69563;37.974;23.708;2023-05-27T14:22:22;5.88;;;2.70;;
80253;SDS011;69563;37.974;23.708;2023-05-27T14:24:49;9.70;;;3.10;;
80253;SDS011;69563;37.974;23.708;2023-05-27T14:27:16;5.10;;;2.65;;
80253;SDS011;69563;37.974;23.708;2023-05-27T14:29:41;5.32;;;2.85;;
80253;SDS011;69563;37.974;23.708;2023-05-27T14:32:07;5.22;;;2.83;;
80253;SDS011;69563;37.974;23.708;2023-05-27T14:34:33;5.40;;;2.85;;
80253;SDS011;69563;37.974;23.708;2023-05-27T14:36:59;8.02;;;2.80;;
80253;SDS011;69563;37.974;23.708;2023-05-27T14:39:24;4.65;;;2.90;;
80253;SDS011;69563;37.974;23.708;2023-05-27T14:41:50;4.95;;;2.90;;
80253;SDS011;69563;37.974;23.708;2023-05-27T14:44:16;5.88;;;2.80;;
80253;SDS011;69563;37.974;23.708;2023-05-27T14:46:42;5.45;;;2.67;;
80253;SDS011;69563;37.974;23.708;2023-05-27T14:49:07;5.22;;;3.03;;
80253;SDS011;69563;37.974;23.708;2023-05-27T14:51:33;4.55;;;2.90;;